createdAt,value
2023-03-16T00:03:41.839Z,101083.41
2023-03-16T00:10:27.553Z,101082.50
2023-03-16T00:17:19.852Z,101079.84
2023-03-16T00:24:03.889Z,101088.41
2023-03-16T00:30:48.251Z,101092.75
2023-03-16T00:37:33.007Z,101091.00
2023-03-16T00:44:15.416Z,101089.97
2023-03-16T00:50:57.643Z,101087.22
2023-03-16T00:57:39.880Z,101086.19
2023-03-16T01:04:23.254Z,101087.75
2023-03-16T01:11:18.716Z,101084.13
2023-03-16T01:18:01.860Z,101084.84
2023-03-16T01:24:45.395Z,101080.34
2023-03-16T01:31:29.315Z,101091.44
2023-03-16T01:38:12.148Z,101082.75
2023-03-16T01:45:02.162Z,101101.66
2023-03-16T01:51:56.360Z,101098.16
2023-03-16T01:58:42.997Z,101099.72
2023-03-16T02:05:54.600Z,101103.84
2023-03-16T02:12:39.501Z,101102.81
2023-03-16T02:20:16.327Z,101114.00
2023-03-16T02:27:08.290Z,101113.09
2023-03-16T02:33:54.197Z,101117.38
2023-03-16T02:40:38.784Z,101121.69
2023-03-16T02:47:41.649Z,101124.22
2023-03-16T02:54:24.645Z,101122.47
2023-03-16T03:01:07.808Z,101130.19
2023-03-16T03:07:51.475Z,101123.25
2023-03-16T03:14:38.090Z,101131.84
2023-03-16T03:21:21.613Z,101136.09
2023-03-16T03:28:08.533Z,101134.25
2023-03-16T03:34:51.338Z,101129.84
2023-03-16T03:41:34.388Z,101129.75
2023-03-16T03:48:18.557Z,101133.13
2023-03-16T03:55:00.910Z,101129.63
2023-03-16T04:01:43.503Z,101123.69
2023-03-16T04:08:26.154Z,101120.41
2023-03-16T04:15:10.003Z,101124.97
2023-03-16T04:22:02.125Z,101126.88
2023-03-16T04:28:44.761Z,101134.81
2023-03-16T04:35:32.061Z,101134.03
2023-03-16T04:42:14.642Z,101141.00
2023-03-16T04:48:58.453Z,101137.56
2023-03-16T04:55:44.433Z,101150.53
2023-03-16T05:02:27.242Z,101159.25
2023-03-16T05:09:12.131Z,101145.53
2023-03-16T05:15:55.561Z,101145.53
2023-03-16T05:22:46.210Z,101147.25
2023-03-16T05:29:36.507Z,101146.47
2023-03-16T05:36:19.635Z,101151.63
2023-03-16T05:43:05.496Z,101143.81
2023-03-16T05:49:52.379Z,101150.88
2023-03-16T05:56:40.654Z,101156.31
2023-03-16T06:03:23.053Z,101155.78
2023-03-16T06:10:08.007Z,101166.41
2023-03-16T06:16:50.839Z,101174.50
2023-03-16T06:23:34.145Z,101174.06
2023-03-16T06:30:17.836Z,101182.34
2023-03-16T06:37:00.348Z,101181.97
2023-03-16T06:43:43.198Z,101188.94
2023-03-16T06:50:27.776Z,101198.41
2023-03-16T06:57:10.729Z,101201.34
2023-03-16T07:03:53.100Z,101208.00
2023-03-16T07:10:40.210Z,101200.81
2023-03-16T07:17:22.458Z,101203.94
2023-03-16T07:24:06.089Z,101211.28
2023-03-16T07:31:02.836Z,101213.34
2023-03-16T07:37:48.038Z,101218.91
2023-03-16T07:44:31.394Z,101219.16
2023-03-16T07:51:14.909Z,101221.22
2023-03-16T07:58:01.843Z,101219.75
2023-03-16T08:04:48.672Z,101222.53
2023-03-16T08:11:31.281Z,101236.59
2023-03-16T08:18:17.731Z,101234.91
2023-03-16T08:25:00.874Z,101237.59
2023-03-16T08:31:43.299Z,101236.78
2023-03-16T08:38:36.000Z,101249.09
2023-03-16T08:45:23.521Z,101254.47
2023-03-16T08:52:06.459Z,101258.06
2023-03-16T08:58:50.488Z,101268.66
2023-03-16T09:05:34.164Z,101280.09
2023-03-16T09:12:16.411Z,101288.19
2023-03-16T09:18:59.251Z,101296.34
2023-03-16T09:25:41.769Z,101294.03
2023-03-16T09:32:23.970Z,101298.69
2023-03-16T09:39:06.256Z,101313.81
2023-03-16T09:46:17.833Z,101319.13
2023-03-16T09:53:34.301Z,101317.59
2023-03-16T10:00:45.317Z,101328.03
2023-03-16T10:07:52.281Z,101336.84
2023-03-16T10:15:04.718Z,101334.41
2023-03-16T10:21:49.137Z,101346.66
2023-03-16T10:28:34.831Z,101355.47
2023-03-16T10:35:31.847Z,101370.22
2023-03-16T10:42:21.392Z,101382.34
2023-03-16T10:49:03.640Z,101378.19
2023-03-16T10:55:48.140Z,101374.91
2023-03-16T11:02:35.416Z,101380.94
2023-03-16T11:09:33.710Z,101387.84
2023-03-16T11:16:33.230Z,101402.06
2023-03-16T11:23:18.405Z,101406.81
2023-03-16T11:30:25.439Z,101410.34
2023-03-16T11:37:40.168Z,101410.44
2023-03-16T11:45:12.651Z,101409.94
2023-03-16T11:52:09.727Z,101414.50
2023-03-16T12:00:01.412Z,101416.28
2023-03-16T12:07:06.090Z,101417.28
2023-03-16T12:14:09.165Z,101417.44
2023-03-16T12:21:01.810Z,101423.00
2023-03-16T12:27:45.541Z,101424.75
2023-03-16T12:34:45.780Z,101429.25
2023-03-16T12:42:06.461Z,101419.28
2023-03-16T12:48:55.944Z,101421.63
2023-03-16T12:55:38.353Z,101428.97
2023-03-16T13:02:31.572Z,101440.41
2023-03-16T13:09:27.408Z,101435.25
2023-03-16T13:16:23.706Z,101441.41
2023-03-16T13:23:18.451Z,101448.41
2023-03-16T13:30:18.176Z,101482.25
2023-03-16T13:37:01.710Z,101504.66
2023-03-16T13:43:44.302Z,101510.38
2023-03-16T13:50:26.996Z,101515.22
2023-03-16T13:57:12.786Z,101520.56
2023-03-16T14:04:08.802Z,101520.50
2023-03-16T14:10:54.469Z,101531.16
2023-03-16T14:17:36.680Z,101524.59
2023-03-16T14:24:33.814Z,101533.59
2023-03-16T14:31:20.907Z,101531.72
2023-03-16T14:38:43.792Z,101535.59
2023-03-16T14:45:34.076Z,101533.72
2023-03-16T14:52:21.675Z,101540.56
2023-03-16T14:59:03.996Z,101549.41
2023-03-16T15:05:49.615Z,101551.78
2023-03-16T15:12:32.084Z,101551.72
2023-03-16T15:19:14.796Z,101552.78
2023-03-16T15:26:02.811Z,101551.19
2023-03-16T15:32:45.290Z,101558.53
2023-03-16T15:39:28.337Z,101570.81
2023-03-16T15:46:11.138Z,101575.06
2023-03-16T15:52:59.986Z,101573.88
2023-03-16T15:59:42.256Z,101584.91
2023-03-16T16:06:24.791Z,101591.66
2023-03-16T16:13:14.053Z,101597.41
2023-03-16T16:19:56.880Z,101609.75
2023-03-16T16:26:51.925Z,101613.44
2023-03-16T16:33:37.245Z,101630.31
2023-03-16T16:40:26.004Z,101640.16
2023-03-16T16:47:23.768Z,101646.56
2023-03-16T16:54:25.577Z,101655.69
2023-03-16T17:01:23.660Z,101663.09
2023-03-16T17:08:06.493Z,101682.50
2023-03-16T17:14:49.907Z,101683.66
2023-03-16T17:21:32.283Z,101684.03
2023-03-16T17:28:16.817Z,101693.03
2023-03-16T17:34:59.158Z,101696.06
2023-03-16T17:41:42.020Z,101695.59
2023-03-16T17:48:24.652Z,101703.03
2023-03-16T17:55:08.019Z,101710.31
2023-03-16T18:01:51.214Z,101721.13
2023-03-16T18:08:35.957Z,101718.00
2023-03-16T18:15:20.352Z,101724.44
2023-03-16T18:22:02.540Z,101735.97
2023-03-16T18:28:45.725Z,101737.25
2023-03-16T18:35:28.395Z,101730.03
2023-03-16T18:42:26.330Z,101730.63
2023-03-16T18:49:36.035Z,101732.91
2023-03-16T18:56:27.169Z,101746.25
2023-03-16T19:03:31.786Z,101739.00
2023-03-16T19:10:30.153Z,101741.38
2023-03-16T19:17:12.380Z,101739.44
2023-03-16T19:24:00.940Z,101755.66
2023-03-16T19:30:43.761Z,101767.63
2023-03-16T19:37:26.758Z,101768.28
2023-03-16T19:44:22.420Z,101778.34
2023-03-16T19:51:06.191Z,101763.44
2023-03-16T19:57:54.125Z,101776.06
2023-03-16T20:04:38.277Z,101781.66
2023-03-16T20:11:30.199Z,101787.22
2023-03-16T20:18:18.355Z,101792.16
2023-03-16T20:25:05.207Z,101776.59
2023-03-16T20:31:47.605Z,101784.13
2023-03-16T20:38:30.016Z,101792.66
2023-03-16T20:45:28.538Z,101798.22
2023-03-16T20:52:17.781Z,101803.16
2023-03-16T20:59:00.120Z,101795.09
2023-03-16T21:05:42.801Z,101789.78
2023-03-16T21:12:32.200Z,101780.13
2023-03-16T21:19:21.210Z,101763.41
2023-03-16T21:26:03.945Z,101763.44
2023-03-16T21:32:46.497Z,101759.06
2023-03-16T21:39:29.404Z,101774.59
2023-03-16T21:46:21.411Z,101770.16
2023-03-16T21:53:04.449Z,101788.06
2023-03-16T21:59:47.156Z,101781.59
2023-03-16T22:06:29.899Z,101781.53
2023-03-16T22:13:12.129Z,101802.84
2023-03-16T22:19:54.337Z,101818.03
2023-03-16T22:26:37.484Z,101811.50
2023-03-16T22:33:28.271Z,101811.22
2023-03-16T22:40:18.561Z,101809.25
2023-03-16T22:47:00.982Z,101802.38
2023-03-16T22:53:45.920Z,101786.97
2023-03-16T23:00:28.860Z,101785.41
2023-03-16T23:07:15.040Z,101781.34
2023-03-16T23:13:58.091Z,101783.91
2023-03-16T23:20:40.541Z,101780.53
2023-03-16T23:27:24.008Z,101772.84
2023-03-16T23:34:16.406Z,101785.22
2023-03-16T23:40:58.824Z,101786.31
2023-03-16T23:47:41.249Z,101774.41
2023-03-16T23:54:31.446Z,101779.84
